sensor_id;sensor_type;location;lat;lon;timestamp;P1;durP1;ratioP1;P2;durP2;ratioP2
17796;SDS011;55596;53.554;9.916;2023-03-01T00:01:08;12.73;;;5.90;;
17796;SDS011;55596;53.554;9.916;2023-03-01T00:03:36;9.93;;;6.40;;
17796;SDS011;55596;53.554;9.916;2023-03-01T00:06:05;9.90;;;6.40;;
17796;SDS011;55596;53.554;9.916;2023-03-01T00:08:32;14.00;;;7.93;;
17796;SDS011;55596;53.554;9.916;2023-03-01T00:11:00;15.97;;;7.50;;
17796;SDS011;55596;53.554;9.916;2023-03-01T00:13:28;12.67;;;7.37;;
17796;SDS011;55596;53.554;9.916;2023-03-01T00:15:55;12.47;;;6.50;;
17796;SDS011;55596;53.554;9.916;2023-03-01T00:18:22;11.20;;;7.37;;
17796;SDS011;55596;53.554;9.916;2023-03-01T00:20:50;11.90;;;6.70;;
17796;SDS011;55596;53.554;9.916;2023-03-01T00:23:19;12.73;;;7.10;;
17796;SDS011;55596;53.554;9.916;2023-03-01T00:25:46;10.50;;;7.30;;
17796;SDS011;55596;53.554;9.916;2023-03-01T00:28:13;11.23;;;7.47;;
17796;SDS011;55596;53.554;9.916;2023-03-01T00:30:41;18.93;;;8.77;;
17796;SDS011;55596;53.554;9.916;2023-03-01T00:33:08;11.03;;;7.97;;
17796;SDS011;55596;53.554;9.916;2023-03-01T00:35:35;14.40;;;8.00;;
17796;SDS011;55596;53.554;9.916;2023-03-01T00:38:03;15.00;;;8.77;;
17796;SDS011;55596;53.554;9.916;2023-03-01T00:40:33;14.57;;;8.60;;
17796;SDS011;55596;53.554;9.916;2023-03-01T00:43:01;14.17;;;7.80;;
17796;SDS011;55596;53.554;9.916;2023-03-01T00:45:28;14.90;;;7.47;;
17796;SDS011;55596;53.554;9.916;2023-03-01T00:47:56;14.73;;;8.13;;
17796;SDS011;55596;53.554;9.916;2023-03-01T00:50:23;12.73;;;7.63;;
17796;SDS011;55596;53.554;9.916;2023-03-01T00:52:52;11.67;;;7.23;;
17796;SDS011;55596;53.554;9.916;2023-03-01T00:55:19;13.43;;;7.07;;
17796;SDS011;55596;53.554;9.916;2023-03-01T00:57:48;11.43;;;7.10;;
17796;SDS011;55596;53.554;9.916;2023-03-01T01:00:15;10.10;;;6.33;;
17796;SDS011;55596;53.554;9.916;2023-03-01T01:02:42;11.57;;;6.43;;
17796;SDS011;55596;53.554;9.916;2023-03-01T01:05:10;10.47;;;6.80;;
17796;SDS011;55596;53.554;9.916;2023-03-01T01:07:37;11.43;;;6.30;;
17796;SDS011;55596;53.554;9.916;2023-03-01T01:10:05;9.93;;;6.60;;
17796;SDS011;55596;53.554;9.916;2023-03-01T01:12:33;10.90;;;7.43;;
17796;SDS011;55596;53.554;9.916;2023-03-01T01:15:01;10.33;;;5.93;;
17796;SDS011;55596;53.554;9.916;2023-03-01T01:17:29;11.67;;;6.47;;
17796;SDS011;55596;53.554;9.916;2023-03-01T01:19:56;10.57;;;6.63;;
17796;SDS011;55596;53.554;9.916;2023-03-01T01:22:23;16.00;;;6.70;;
17796;SDS011;55596;53.554;9.916;2023-03-01T01:24:51;10.87;;;6.20;;
17796;SDS011;55596;53.554;9.916;2023-03-01T01:27:18;8.50;;;5.63;;
17796;SDS011;55596;53.554;9.916;2023-03-01T01:29:45;9.47;;;5.73;;
17796;SDS011;55596;53.554;9.916;2023-03-01T01:32:14;6.47;;;5.00;;
17796;SDS011;55596;53.554;9.916;2023-03-01T01:34:41;9.13;;;5.37;;
17796;SDS011;55596;53.554;9.916;2023-03-01T01:37:08;6.53;;;4.97;;
17796;SDS011;55596;53.554;9.916;2023-03-01T01:39:35;10.47;;;4.70;;
17796;SDS011;55596;53.554;9.916;2023-03-01T01:42:02;8.90;;;4.67;;
17796;SDS011;55596;53.554;9.916;2023-03-01T01:44:30;5.60;;;4.00;;
17796;SDS011;55596;53.554;9.916;2023-03-01T01:46:58;7.77;;;3.90;;
17796;SDS011;55596;53.554;9.916;2023-03-01T01:49:29;7.63;;;4.03;;
17796;SDS011;55596;53.554;9.916;2023-03-01T01:52:07;5.70;;;4.10;;
17796;SDS011;55596;53.554;9.916;2023-03-01T01:54:37;8.00;;;4.07;;
17796;SDS011;55596;53.554;9.916;2023-03-01T01:57:07;9.10;;;4.10;;
17796;SDS011;55596;53.554;9.916;2023-03-01T01:59:35;5.93;;;4.17;;
17796;SDS011;55596;53.554;9.916;2023-03-01T02:02:03;6.00;;;3.73;;
17796;SDS011;55596;53.554;9.916;2023-03-01T02:04:33;6.70;;;3.70;;
17796;SDS011;55596;53.554;9.916;2023-03-01T02:07:01;6.73;;;3.93;;
17796;SDS011;55596;53.554;9.916;2023-03-01T02:09:29;6.13;;;4.10;;
17796;SDS011;55596;53.554;9.916;2023-03-01T02:11:58;5.90;;;3.13;;
17796;SDS011;55596;53.554;9.916;2023-03-01T02:14:26;5.13;;;3.23;;
17796;SDS011;55596;53.554;9.916;2023-03-01T02:16:53;6.07;;;3.40;;
17796;SDS011;55596;53.554;9.916;2023-03-01T02:19:24;7.33;;;3.10;;
17796;SDS011;55596;53.554;9.916;2023-03-01T02:21:56;7.40;;;3.10;;
17796;SDS011;55596;53.554;9.916;2023-03-01T02:24:28;3.33;;;2.30;;
17796;SDS011;55596;53.554;9.916;2023-03-01T02:27:00;5.80;;;3.17;;
17796;SDS011;55596;53.554;9.916;2023-03-01T02:29:30;5.10;;;2.93;;
17796;SDS011;55596;53.554;9.916;2023-03-01T02:31:58;4.70;;;3.00;;
17796;SDS011;55596;53.554;9.916;2023-03-01T02:34:25;6.87;;;3.13;;
17796;SDS011;55596;53.554;9.916;2023-03-01T02:36:55;5.07;;;2.87;;
17796;SDS011;55596;53.554;9.916;2023-03-01T02:39:24;5.10;;;2.70;;
17796;SDS011;55596;53.554;9.916;2023-03-01T02:41:52;5.00;;;3.10;;
17796;SDS011;55596;53.554;9.916;2023-03-01T02:44:20;4.40;;;2.60;;
17796;SDS011;55596;53.554;9.916;2023-03-01T02:46:50;6.63;;;2.90;;
17796;SDS011;55596;53.554;9.916;2023-03-01T02:49:19;4.17;;;3.00;;
17796;SDS011;55596;53.554;9.916;2023-03-01T02:51:48;5.77;;;3.20;;
17796;SDS011;55596;53.554;9.916;2023-03-01T02:54:21;5.97;;;2.87;;
17796;SDS011;55596;53.554;9.916;2023-03-01T02:56:51;6.23;;;3.40;;
17796;SDS011;55596;53.554;9.916;2023-03-01T02:59:19;7.77;;;3.17;;
17796;SDS011;55596;53.554;9.916;2023-03-01T03:01:47;6.43;;;3.60;;
17796;SDS011;55596;53.554;9.916;2023-03-01T03:04:16;9.13;;;3.37;;
17796;SDS011;55596;53.554;9.916;2023-03-01T03:06:46;6.50;;;3.23;;
17796;SDS011;55596;53.554;9.916;2023-03-01T03:09:14;5.77;;;3.20;;
17796;SDS011;55596;53.554;9.916;2023-03-01T03:11:42;5.57;;;3.23;;
17796;SDS011;55596;53.554;9.916;2023-03-01T03:14:09;6.03;;;3.30;;
17796;SDS011;55596;53.554;9.916;2023-03-01T03:16:39;9.80;;;3.10;;
17796;SDS011;55596;53.554;9.916;2023-03-01T03:19:06;5.77;;;3.10;;
17796;SDS011;55596;53.554;9.916;2023-03-01T03:21:34;5.20;;;3.30;;
17796;SDS011;55596;53.554;9.916;2023-03-01T03:24:02;5.07;;;3.07;;
17796;SDS011;55596;53.554;9.916;2023-03-01T03:26:29;4.83;;;2.67;;
17796;SDS011;55596;53.554;9.916;2023-03-01T03:28:57;6.13;;;3.13;;
17796;SDS011;55596;53.554;9.916;2023-03-01T03:31:24;4.20;;;2.93;;
17796;SDS011;55596;53.554;9.916;2023-03-01T03:33:51;7.43;;;3.43;;
17796;SDS011;55596;53.554;9.916;2023-03-01T03:36:20;4.47;;;2.90;;
17796;SDS011;55596;53.554;9.916;2023-03-01T03:38:49;4.13;;;2.60;;
17796;SDS011;55596;53.554;9.916;2023-03-01T03:41:16;6.30;;;2.63;;
17796;SDS011;55596;53.554;9.916;2023-03-01T03:43:44;6.73;;;3.13;;
17796;SDS011;55596;53.554;9.916;2023-03-01T03:46:11;5.30;;;2.93;;
17796;SDS011;55596;53.554;9.916;2023-03-01T03:48:39;5.13;;;2.73;;
17796;SDS011;55596;53.554;9.916;2023-03-01T03:51:09;4.60;;;2.63;;
17796;SDS011;55596;53.554;9.916;2023-03-01T03:53:36;5.77;;;3.10;;
17796;SDS011;55596;53.554;9.916;2023-03-01T03:56:06;7.30;;;3.20;;
17796;SDS011;55596;53.554;9.916;2023-03-01T03:58:33;3.43;;;2.60;;
17796;SDS011;55596;53.554;9.916;2023-03-01T04:01:00;7.27;;;2.43;;
17796;SDS011;55596;53.554;9.916;2023-03-01T04:03:28;3.90;;;2.43;;
17796;SDS011;55596;53.554;9.916;2023-03-01T04:05:57;5.53;;;2.60;;
17796;SDS011;55596;53.554;9.916;2023-03-01T04:08:24;4.63;;;2.80;;
17796;SDS011;55596;53.554;9.916;2023-03-01T04:10:52;3.87;;;2.33;;
17796;SDS011;55596;53.554;9.916;2023-03-01T04:13:24;4.63;;;2.33;;
17796;SDS011;55596;53.554;9.916;2023-03-01T04:15:52;4.10;;;2.27;;
17796;SDS011;55596;53.554;9.916;2023-03-01T04:18:20;3.30;;;2.20;;
17796;SDS011;55596;53.554;9.916;2023-03-01T04:20:47;4.53;;;2.07;;
17796;SDS011;55596;53.554;9.916;2023-03-01T04:23:17;5.27;;;2.73;;
17796;SDS011;55596;53.554;9.916;2023-03-01T04:25:46;4.67;;;1.90;;
17796;SDS011;55596;53.554;9.916;2023-03-01T04:28:18;4.33;;;2.80;;
17796;SDS011;55596;53.554;9.916;2023-03-01T04:30:47;4.50;;;2.60;;
17796;SDS011;55596;53.554;9.916;2023-03-01T04:33:14;5.90;;;2.60;;
17796;SDS011;55596;53.554;9.916;2023-03-01T04:35:41;5.93;;;2.30;;
17796;SDS011;55596;53.554;9.916;2023-03-01T04:38:09;6.50;;;2.40;;
17796;SDS011;55596;53.554;9.916;2023-03-01T04:40:36;4.60;;;2.63;;
17796;SDS011;55596;53.554;9.916;2023-03-01T04:43:04;3.13;;;2.03;;
17796;SDS011;55596;53.554;9.916;2023-03-01T04:45:31;6.60;;;2.50;;
17796;SDS011;55596;53.554;9.916;2023-03-01T04:48:00;5.13;;;2.63;;
17796;SDS011;55596;53.554;9.916;2023-03-01T04:50:28;5.30;;;2.57;;
17796;SDS011;55596;53.554;9.916;2023-03-01T04:52:55;4.47;;;2.90;;
17796;SDS011;55596;53.554;9.916;2023-03-01T04:55:25;3.67;;;2.27;;
17796;SDS011;55596;53.554;9.916;2023-03-01T04:57:52;5.13;;;2.20;;
17796;SDS011;55596;53.554;9.916;2023-03-01T05:00:20;8.03;;;2.60;;
17796;SDS011;55596;53.554;9.916;2023-03-01T05:02:48;4.23;;;2.37;;
17796;SDS011;55596;53.554;9.916;2023-03-01T05:05:20;4.67;;;2.40;;
17796;SDS011;55596;53.554;9.916;2023-03-01T05:07:50;3.90;;;2.33;;
17796;SDS011;55596;53.554;9.916;2023-03-01T05:10:17;7.73;;;2.40;;
17796;SDS011;55596;53.554;9.916;2023-03-01T05:12:44;2.83;;;2.10;;
17796;SDS011;55596;53.554;9.916;2023-03-01T05:15:12;4.70;;;2.63;;
17796;SDS011;55596;53.554;9.916;2023-03-01T05:17:39;4.23;;;2.30;;
17796;SDS011;55596;53.554;9.916;2023-03-01T05:20:07;4.93;;;2.50;;
17796;SDS011;55596;53.554;9.916;2023-03-01T05:22:36;5.67;;;2.70;;
17796;SDS011;55596;53.554;9.916;2023-03-01T05:25:04;5.33;;;2.90;;
17796;SDS011;55596;53.554;9.916;2023-03-01T05:27:32;9.70;;;2.47;;
17796;SDS011;55596;53.554;9.916;2023-03-01T05:29:59;7.23;;;3.10;;
17796;SDS011;55596;53.554;9.916;2023-03-01T05:32:38;5.10;;;2.80;;
17796;SDS011;55596;53.554;9.916;2023-03-01T05:35:05;8.33;;;3.60;;
17796;SDS011;55596;53.554;9.916;2023-03-01T05:37:33;3.67;;;2.70;;
17796;SDS011;55596;53.554;9.916;2023-03-01T05:40:02;4.67;;;2.53;;
17796;SDS011;55596;53.554;9.916;2023-03-01T05:42:30;6.40;;;3.00;;
17796;SDS011;55596;53.554;9.916;2023-03-01T05:44:57;8.10;;;3.00;;
17796;SDS011;55596;53.554;9.916;2023-03-01T05:47:25;9.07;;;2.70;;
17796;SDS011;55596;53.554;9.916;2023-03-01T05:49:52;7.03;;;3.30;;
17796;SDS011;55596;53.554;9.916;2023-03-01T05:52:19;5.97;;;3.00;;
17796;SDS011;55596;53.554;9.916;2023-03-01T05:54:48;6.40;;;2.80;;
17796;SDS011;55596;53.554;9.916;2023-03-01T05:57:17;5.57;;;3.23;;
17796;SDS011;55596;53.554;9.916;2023-03-01T05:59:45;9.77;;;3.10;;
17796;SDS011;55596;53.554;9.916;2023-03-01T06:02:12;5.07;;;2.97;;
17796;SDS011;55596;53.554;9.916;2023-03-01T06:04:39;6.47;;;2.90;;
17796;SDS011;55596;53.554;9.916;2023-03-01T06:07:06;3.73;;;2.47;;
17796;SDS011;55596;53.554;9.916;2023-03-01T06:09:34;5.37;;;2.80;;
17796;SDS011;55596;53.554;9.916;2023-03-01T06:12:01;6.13;;;3.53;;
17796;SDS011;55596;53.554;9.916;2023-03-01T06:14:30;4.77;;;2.93;;
17796;SDS011;55596;53.554;9.916;2023-03-01T06:16:57;5.30;;;3.03;;
17796;SDS011;55596;53.554;9.916;2023-03-01T06:19:24;5.20;;;2.77;;
17796;SDS011;55596;53.554;9.916;2023-03-01T06:21:51;6.43;;;3.17;;
17796;SDS011;55596;53.554;9.916;2023-03-01T06:24:18;4.73;;;2.70;;
17796;SDS011;55596;53.554;9.916;2023-03-01T06:26:46;4.40;;;2.93;;
17796;SDS011;55596;53.554;9.916;2023-03-01T06:29:13;7.53;;;3.07;;
17796;SDS011;55596;53.554;9.916;2023-03-01T06:31:42;5.37;;;3.40;;
17796;SDS011;55596;53.554;9.916;2023-03-01T06:34:10;4.70;;;2.93;;
17796;SDS011;55596;53.554;9.916;2023-03-01T06:36:38;5.70;;;2.93;;
17796;SDS011;55596;53.554;9.916;2023-03-01T06:39:05;4.30;;;2.73;;
17796;SDS011;55596;53.554;9.916;2023-03-01T06:41:33;7.83;;;3.37;;
17796;SDS011;55596;53.554;9.916;2023-03-01T06:44:00;5.93;;;2.93;;
17796;SDS011;55596;53.554;9.916;2023-03-01T06:46:27;7.10;;;3.40;;
17796;SDS011;55596;53.554;9.916;2023-03-01T06:48:56;5.00;;;3.60;;
17796;SDS011;55596;53.554;9.916;2023-03-01T06:51:23;6.40;;;3.23;;
17796;SDS011;55596;53.554;9.916;2023-03-01T06:53:50;6.87;;;3.83;;
17796;SDS011;55596;53.554;9.916;2023-03-01T06:56:17;5.90;;;3.63;;
17796;SDS011;55596;53.554;9.916;2023-03-01T06:58:45;5.33;;;3.43;;
17796;SDS011;55596;53.554;9.916;2023-03-01T07:01:12;7.23;;;3.23;;
17796;SDS011;55596;53.554;9.916;2023-03-01T07:03:39;6.17;;;3.70;;
17796;SDS011;55596;53.554;9.916;2023-03-01T07:06:10;7.03;;;4.07;;
17796;SDS011;55596;53.554;9.916;2023-03-01T07:08:37;8.97;;;3.80;;
17796;SDS011;55596;53.554;9.916;2023-03-01T07:11:05;8.50;;;3.77;;
17796;SDS011;55596;53.554;9.916;2023-03-01T07:13:32;6.63;;;3.60;;
17796;SDS011;55596;53.554;9.916;2023-03-01T07:15:59;10.77;;;3.70;;
17796;SDS011;55596;53.554;9.916;2023-03-01T07:18:26;7.47;;;3.80;;
17796;SDS011;55596;53.554;9.916;2023-03-01T07:20:54;7.20;;;3.83;;
17796;SDS011;55596;53.554;9.916;2023-03-01T07:23:22;4.93;;;3.50;;
17796;SDS011;55596;53.554;9.916;2023-03-01T07:25:53;11.33;;;4.23;;
17796;SDS011;55596;53.554;9.916;2023-03-01T07:28:20;5.87;;;3.63;;
17796;SDS011;55596;53.554;9.916;2023-03-01T07:30:49;8.53;;;4.27;;
17796;SDS011;55596;53.554;9.916;2023-03-01T07:33:16;10.97;;;4.20;;
17796;SDS011;55596;53.554;9.916;2023-03-01T07:35:43;8.23;;;4.17;;
17796;SDS011;55596;53.554;9.916;2023-03-01T07:38:10;10.53;;;3.83;;
17796;SDS011;55596;53.554;9.916;2023-03-01T07:40:39;8.70;;;3.77;;
17796;SDS011;55596;53.554;9.916;2023-03-01T07:43:06;6.67;;;4.00;;
17796;SDS011;55596;53.554;9.916;2023-03-01T07:45:34;10.17;;;4.10;;
17796;SDS011;55596;53.554;9.916;2023-03-01T07:48:01;8.57;;;4.60;;
17796;SDS011;55596;53.554;9.916;2023-03-01T07:50:28;9.63;;;4.27;;
17796;SDS011;55596;53.554;9.916;2023-03-01T07:52:55;8.17;;;4.30;;
17796;SDS011;55596;53.554;9.916;2023-03-01T07:55:22;9.07;;;4.73;;
17796;SDS011;55596;53.554;9.916;2023-03-01T07:57:51;10.93;;;4.73;;
17796;SDS011;55596;53.554;9.916;2023-03-01T08:00:18;10.07;;;4.77;;
17796;SDS011;55596;53.554;9.916;2023-03-01T08:02:46;14.37;;;5.27;;
17796;SDS011;55596;53.554;9.916;2023-03-01T08:05:13;10.93;;;5.43;;
17796;SDS011;55596;53.554;9.916;2023-03-01T08:07:40;13.00;;;5.80;;
17796;SDS011;55596;53.554;9.916;2023-03-01T08:10:08;11.33;;;6.87;;
17796;SDS011;55596;53.554;9.916;2023-03-01T08:12:35;9.30;;;7.00;;
17796;SDS011;55596;53.554;9.916;2023-03-01T08:15:04;13.13;;;6.70;;
17796;SDS011;55596;53.554;9.916;2023-03-01T08:17:32;14.33;;;7.73;;
17796;SDS011;55596;53.554;9.916;2023-03-01T08:19:59;10.93;;;6.93;;
17796;SDS011;55596;53.554;9.916;2023-03-01T08:22:28;14.57;;;7.83;;
17796;SDS011;55596;53.554;9.916;2023-03-01T08:24:55;11.23;;;7.40;;
17796;SDS011;55596;53.554;9.916;2023-03-01T08:27:22;12.27;;;7.50;;
17796;SDS011;55596;53.554;9.916;2023-03-01T08:29:50;13.60;;;7.17;;
17796;SDS011;55596;53.554;9.916;2023-03-01T08:32:18;13.03;;;8.67;;
17796;SDS011;55596;53.554;9.916;2023-03-01T08:34:46;15.27;;;8.43;;
17796;SDS011;55596;53.554;9.916;2023-03-01T08:37:13;13.33;;;8.33;;
17796;SDS011;55596;53.554;9.916;2023-03-01T08:39:40;14.50;;;8.83;;
17796;SDS011;55596;53.554;9.916;2023-03-01T08:42:07;18.47;;;9.90;;
17796;SDS011;55596;53.554;9.916;2023-03-01T08:44:35;12.70;;;8.90;;
17796;SDS011;55596;53.554;9.916;2023-03-01T08:47:02;11.83;;;9.00;;
17796;SDS011;55596;53.554;9.916;2023-03-01T08:49:31;13.80;;;8.73;;
17796;SDS011;55596;53.554;9.916;2023-03-01T08:51:58;16.13;;;9.30;;
17796;SDS011;55596;53.554;9.916;2023-03-01T08:54:26;12.73;;;8.67;;
17796;SDS011;55596;53.554;9.916;2023-03-01T08:56:53;15.33;;;8.60;;
17796;SDS011;55596;53.554;9.916;2023-03-01T08:59:20;11.50;;;8.60;;
17796;SDS011;55596;53.554;9.916;2023-03-01T09:01:48;13.37;;;8.27;;
17796;SDS011;55596;53.554;9.916;2023-03-01T09:04:15;17.83;;;7.93;;
17796;SDS011;55596;53.554;9.916;2023-03-01T09:06:44;12.20;;;8.43;;
17796;SDS011;55596;53.554;9.916;2023-03-01T09:09:12;20.07;;;9.47;;
17796;SDS011;55596;53.554;9.916;2023-03-01T09:11:41;14.93;;;6.90;;
17796;SDS011;55596;53.554;9.916;2023-03-01T09:14:08;11.57;;;7.63;;
17796;SDS011;55596;53.554;9.916;2023-03-01T09:16:35;12.13;;;6.97;;
17796;SDS011;55596;53.554;9.916;2023-03-01T09:19:03;8.10;;;6.67;;
17796;SDS011;55596;53.554;9.916;2023-03-01T09:21:30;12.80;;;6.80;;
17796;SDS011;55596;53.554;9.916;2023-03-01T09:23:59;12.87;;;6.80;;
17796;SDS011;55596;53.554;9.916;2023-03-01T09:26:26;9.47;;;6.33;;
17796;SDS011;55596;53.554;9.916;2023-03-01T09:28:54;9.63;;;6.77;;
17796;SDS011;55596;53.554;9.916;2023-03-01T09:31:22;8.53;;;7.40;;
17796;SDS011;55596;53.554;9.916;2023-03-01T09:33:50;9.23;;;7.73;;
17796;SDS011;55596;53.554;9.916;2023-03-01T09:36:19;13.07;;;8.40;;
17796;SDS011;55596;53.554;9.916;2023-03-01T09:38:47;12.63;;;8.87;;
17796;SDS011;55596;53.554;9.916;2023-03-01T09:41:22;22.30;;;10.10;;
17796;SDS011;55596;53.554;9.916;2023-03-01T09:43:52;12.10;;;9.00;;
17796;SDS011;55596;53.554;9.916;2023-03-01T09:46:22;14.20;;;9.37;;
17796;SDS011;55596;53.554;9.916;2023-03-01T09:48:51;13.87;;;10.23;;
17796;SDS011;55596;53.554;9.916;2023-03-01T09:51:22;12.83;;;8.70;;
17796;SDS011;55596;53.554;9.916;2023-03-01T09:53:50;9.20;;;7.67;;
17796;SDS011;55596;53.554;9.916;2023-03-01T09:56:22;13.10;;;8.20;;
17796;SDS011;55596;53.554;9.916;2023-03-01T09:58:53;11.47;;;8.60;;
17796;SDS011;55596;53.554;9.916;2023-03-01T10:01:27;10.67;;;8.60;;
17796;SDS011;55596;53.554;9.916;2023-03-01T10:04:04;14.33;;;8.83;;
17796;SDS011;55596;53.554;9.916;2023-03-01T10:06:35;22.10;;;9.83;;
17796;SDS011;55596;53.554;9.916;2023-03-01T10:09:04;13.07;;;9.10;;
17796;SDS011;55596;53.554;9.916;2023-03-01T10:11:35;15.37;;;8.47;;
17796;SDS011;55596;53.554;9.916;2023-03-01T10:14:04;15.30;;;9.43;;
17796;SDS011;55596;53.554;9.916;2023-03-01T10:16:35;14.50;;;8.90;;
17796;SDS011;55596;53.554;9.916;2023-03-01T10:19:04;13.77;;;9.20;;
17796;SDS011;55596;53.554;9.916;2023-03-01T10:21:32;15.33;;;9.33;;
17796;SDS011;55596;53.554;9.916;2023-03-01T10:24:08;11.13;;;7.83;;
17796;SDS011;55596;53.554;9.916;2023-03-01T10:26:42;12.20;;;8.57;;
17796;SDS011;55596;53.554;9.916;2023-03-01T10:29:11;11.27;;;8.43;;
17796;SDS011;55596;53.554;9.916;2023-03-01T10:31:40;11.60;;;7.80;;
17796;SDS011;55596;53.554;9.916;2023-03-01T10:34:13;12.57;;;8.27;;
17796;SDS011;55596;53.554;9.916;2023-03-01T10:36:41;11.60;;;8.38;;
17796;SDS011;55596;53.554;9.916;2023-03-01T10:39:12;10.53;;;7.77;;
17796;SDS011;55596;53.554;9.916;2023-03-01T10:41:51;10.40;;;7.88;;
17796;SDS011;55596;53.554;9.916;2023-03-01T10:44:34;10.07;;;7.03;;
17796;SDS011;55596;53.554;9.916;2023-03-01T10:47:02;11.53;;;7.03;;
17796;SDS011;55596;53.554;9.916;2023-03-01T10:49:29;11.93;;;7.43;;
17796;SDS011;55596;53.554;9.916;2023-03-01T10:51:56;15.77;;;7.83;;
17796;SDS011;55596;53.554;9.916;2023-03-01T10:54:37;12.03;;;7.63;;
17796;SDS011;55596;53.554;9.916;2023-03-01T10:57:21;13.30;;;8.88;;
17796;SDS011;55596;53.554;9.916;2023-03-01T11:00:00;13.33;;;7.30;;
17796;SDS011;55596;53.554;9.916;2023-03-01T11:02:30;10.20;;;7.33;;
17796;SDS011;55596;53.554;9.916;2023-03-01T11:04:59;12.30;;;7.50;;
17796;SDS011;55596;53.554;9.916;2023-03-01T11:07:27;15.67;;;7.53;;
17796;SDS011;55596;53.554;9.916;2023-03-01T11:09:54;15.43;;;7.90;;
17796;SDS011;55596;53.554;9.916;2023-03-01T11:12:23;16.90;;;8.17;;
17796;SDS011;55596;53.554;9.916;2023-03-01T11:14:52;12.83;;;8.23;;
17796;SDS011;55596;53.554;9.916;2023-03-01T11:17:21;11.33;;;8.23;;
17796;SDS011;55596;53.554;9.916;2023-03-01T11:20:00;10.67;;;7.80;;
17796;SDS011;55596;53.554;9.916;2023-03-01T11:22:28;10.67;;;7.90;;
17796;SDS011;55596;53.554;9.916;2023-03-01T11:24:55;11.10;;;7.83;;
17796;SDS011;55596;53.554;9.916;2023-03-01T11:27:26;14.63;;;6.97;;
17796;SDS011;55596;53.554;9.916;2023-03-01T11:29:55;9.53;;;6.87;;
17796;SDS011;55596;53.554;9.916;2023-03-01T11:32:25;8.17;;;6.30;;
17796;SDS011;55596;53.554;9.916;2023-03-01T11:34:54;10.13;;;6.63;;
17796;SDS011;55596;53.554;9.916;2023-03-01T11:37:26;10.27;;;6.53;;
17796;SDS011;55596;53.554;9.916;2023-03-01T11:39:58;9.77;;;6.73;;
17796;SDS011;55596;53.554;9.916;2023-03-01T11:42:31;11.07;;;6.33;;
17796;SDS011;55596;53.554;9.916;2023-03-01T11:45:02;8.17;;;5.73;;
17796;SDS011;55596;53.554;9.916;2023-03-01T11:47:37;9.40;;;6.53;;
17796;SDS011;55596;53.554;9.916;2023-03-01T11:50:19;8.87;;;5.90;;
17796;SDS011;55596;53.554;9.916;2023-03-01T11:52:54;13.07;;;6.53;;
17796;SDS011;55596;53.554;9.916;2023-03-01T11:55:29;12.80;;;5.97;;
17796;SDS011;55596;53.554;9.916;2023-03-01T11:58:03;15.03;;;5.97;;
17796;SDS011;55596;53.554;9.916;2023-03-01T12:00:37;6.10;;;4.90;;
17796;SDS011;55596;53.554;9.916;2023-03-01T12:05:57;5.97;;;4.67;;
17796;SDS011;55596;53.554;9.916;2023-03-01T12:08:30;5.97;;;4.57;;
17796;SDS011;55596;53.554;9.916;2023-03-01T12:11:02;7.23;;;4.60;;
17796;SDS011;55596;53.554;9.916;2023-03-01T12:13:46;6.60;;;4.20;;
17796;SDS011;55596;53.554;9.916;2023-03-01T12:16:35;4.40;;;3.80;;
17796;SDS011;55596;53.554;9.916;2023-03-01T12:19:30;5.50;;;4.20;;
17796;SDS011;55596;53.554;9.916;2023-03-01T12:22:12;5.33;;;3.87;;
17796;SDS011;55596;53.554;9.916;2023-03-01T12:25:02;5.90;;;4.23;;
17796;SDS011;55596;53.554;9.916;2023-03-01T12:28:09;6.30;;;3.53;;
17796;SDS011;55596;53.554;9.916;2023-03-01T12:31:14;5.30;;;3.90;;
17796;SDS011;55596;53.554;9.916;2023-03-01T12:34:00;4.78;;;4.20;;
17796;SDS011;55596;53.554;9.916;2023-03-01T12:36:32;6.40;;;4.22;;
17796;SDS011;55596;53.554;9.916;2023-03-01T12:39:09;5.32;;;4.00;;
17796;SDS011;55596;53.554;9.916;2023-03-01T12:41:43;5.03;;;3.70;;
17796;SDS011;55596;53.554;9.916;2023-03-01T12:44:22;8.00;;;3.70;;
17796;SDS011;55596;53.554;9.916;2023-03-01T12:47:05;5.45;;;3.70;;
17796;SDS011;55596;53.554;9.916;2023-03-01T12:49:40;6.85;;;3.75;;
17796;SDS011;55596;53.554;9.916;2023-03-01T12:52:10;5.65;;;3.28;;
17796;SDS011;55596;53.554;9.916;2023-03-01T12:54:40;6.72;;;3.33;;
17796;SDS011;55596;53.554;9.916;2023-03-01T12:57:09;7.55;;;3.75;;
17796;SDS011;55596;53.554;9.916;2023-03-01T12:59:39;5.13;;;3.28;;
17796;SDS011;55596;53.554;9.916;2023-03-01T13:02:13;7.45;;;3.42;;
17796;SDS011;55596;53.554;9.916;2023-03-01T13:04:53;7.30;;;4.10;;
17796;SDS011;55596;53.554;9.916;2023-03-01T13:07:34;3.58;;;3.22;;
17796;SDS011;55596;53.554;9.916;2023-03-01T13:10:09;6.90;;;3.10;;
17796;SDS011;55596;53.554;9.916;2023-03-01T13:12:50;4.03;;;3.40;;
17796;SDS011;55596;53.554;9.916;2023-03-01T13:15:26;3.45;;;3.05;;
17796;SDS011;55596;53.554;9.916;2023-03-01T13:17:59;4.10;;;3.22;;
17796;SDS011;55596;53.554;9.916;2023-03-01T13:20:33;5.45;;;3.40;;
17796;SDS011;55596;53.554;9.916;2023-03-01T13:23:12;10.77;;;3.45;;
17796;SDS011;55596;53.554;9.916;2023-03-01T13:26:01;4.40;;;3.42;;
17796;SDS011;55596;53.554;9.916;2023-03-01T13:28:48;6.47;;;3.50;;
17796;SDS011;55596;53.554;9.916;2023-03-01T13:34:42;4.32;;;3.40;;
17796;SDS011;55596;53.554;9.916;2023-03-01T13:37:20;6.05;;;3.40;;
17796;SDS011;55596;53.554;9.916;2023-03-01T13:39:51;4.60;;;3.80;;
17796;SDS011;55596;53.554;9.916;2023-03-01T13:45:19;4.35;;;2.90;;
17796;SDS011;55596;53.554;9.916;2023-03-01T13:47:54;4.32;;;3.47;;
17796;SDS011;55596;53.554;9.916;2023-03-01T13:50:27;5.07;;;3.88;;
17796;SDS011;55596;53.554;9.916;2023-03-01T13:52:56;7.53;;;4.25;;
17796;SDS011;55596;53.554;9.916;2023-03-01T13:55:27;4.40;;;4.00;;
17796;SDS011;55596;53.554;9.916;2023-03-01T13:58:01;5.10;;;4.28;;
17796;SDS011;55596;53.554;9.916;2023-03-01T14:00:38;5.95;;;3.97;;
17796;SDS011;55596;53.554;9.916;2023-03-01T14:03:10;8.55;;;4.60;;
17796;SDS011;55596;53.554;9.916;2023-03-01T14:05:40;5.53;;;4.20;;
17796;SDS011;55596;53.554;9.916;2023-03-01T14:11:00;7.10;;;4.80;;
17796;SDS011;55596;53.554;9.916;2023-03-01T14:13:56;6.03;;;4.72;;
17796;SDS011;55596;53.554;9.916;2023-03-01T14:16:38;8.73;;;4.35;;
17796;SDS011;55596;53.554;9.916;2023-03-01T14:19:15;6.97;;;4.25;;
17796;SDS011;55596;53.554;9.916;2023-03-01T14:21:46;7.70;;;4.50;;
17796;SDS011;55596;53.554;9.916;2023-03-01T14:24:17;7.07;;;5.07;;
17796;SDS011;55596;53.554;9.916;2023-03-01T14:26:46;5.40;;;4.05;;
17796;SDS011;55596;53.554;9.916;2023-03-01T14:29:23;6.85;;;4.60;;
17796;SDS011;55596;53.554;9.916;2023-03-01T14:31:52;8.13;;;4.30;;
17796;SDS011;55596;53.554;9.916;2023-03-01T14:34:20;8.07;;;4.25;;
17796;SDS011;55596;53.554;9.916;2023-03-01T14:36:50;8.32;;;4.35;;
17796;SDS011;55596;53.554;9.916;2023-03-01T14:39:18;5.18;;;3.95;;
17796;SDS011;55596;53.554;9.916;2023-03-01T14:41:46;5.25;;;3.17;;
17796;SDS011;55596;53.554;9.916;2023-03-01T14:44:14;3.80;;;2.42;;
17796;SDS011;55596;53.554;9.916;2023-03-01T14:46:51;3.72;;;3.00;;
17796;SDS011;55596;53.554;9.916;2023-03-01T14:49:20;4.03;;;3.40;;
17796;SDS011;55596;53.554;9.916;2023-03-01T14:51:53;7.18;;;3.50;;
17796;SDS011;55596;53.554;9.916;2023-03-01T14:54:24;8.35;;;4.03;;
17796;SDS011;55596;53.554;9.916;2023-03-01T14:56:53;8.70;;;4.35;;
17796;SDS011;55596;53.554;9.916;2023-03-01T14:59:24;7.18;;;4.00;;
17796;SDS011;55596;53.554;9.916;2023-03-01T15:01:53;5.57;;;4.22;;
17796;SDS011;55596;53.554;9.916;2023-03-01T15:04:21;6.63;;;4.20;;
17796;SDS011;55596;53.554;9.916;2023-03-01T15:06:51;7.03;;;4.57;;
17796;SDS011;55596;53.554;9.916;2023-03-01T15:09:20;5.77;;;4.27;;
17796;SDS011;55596;53.554;9.916;2023-03-01T15:11:48;8.17;;;4.80;;